createdAt,value
2019-04-13T00:00:09.935Z,945.5
2019-04-13T00:03:15.807Z,945.6
2019-04-13T00:06:21.799Z,945.6
2019-04-13T00:09:27.716Z,945.6
2019-04-13T00:12:33.624Z,945.6
2019-04-13T00:15:39.584Z,945.6
2019-04-13T00:18:45.541Z,945.6
2019-04-13T00:21:51.601Z,945.6
2019-04-13T00:24:57.564Z,945.7
2019-04-13T00:28:03.618Z,945.7
2019-04-13T00:31:09.543Z,945.7
2019-04-13T00:34:18.508Z,945.7
2019-04-13T00:37:24.449Z,945.7
2019-04-13T00:40:30.442Z,945.7
2019-04-13T00:43:36.388Z,945.7
2019-04-13T00:46:45.065Z,945.6
2019-04-13T00:49:51.181Z,945.7
2019-04-13T00:52:57.176Z,945.6
2019-04-13T00:56:03.151Z,945.6
2019-04-13T00:59:09.319Z,945.6
2019-04-13T01:02:15.278Z,945.6
2019-04-13T01:05:21.345Z,945.6
2019-04-13T01:08:27.291Z,945.6
2019-04-13T01:11:33.204Z,945.6
2019-04-13T01:14:39.098Z,945.7
2019-04-13T01:17:45.037Z,945.6
2019-04-13T01:20:50.903Z,945.6
2019-04-13T01:23:56.861Z,945.6
2019-04-13T01:27:02.833Z,945.6
2019-04-13T01:30:08.771Z,945.6
2019-04-13T01:33:14.729Z,945.6
2019-04-13T01:36:20.687Z,945.5
2019-04-13T01:39:26.561Z,945.5
2019-04-13T01:42:32.504Z,945.5
2019-04-13T01:45:38.465Z,945.5
2019-04-13T01:48:44.527Z,945.4
2019-04-13T01:51:50.482Z,945.4
2019-04-13T01:54:56.350Z,945.4
2019-04-13T01:58:02.304Z,945.4
2019-04-13T02:01:08.268Z,945.4
2019-04-13T02:04:14.231Z,945.4
2019-04-13T02:07:20.185Z,945.4
2019-04-13T02:10:26.187Z,945.4
2019-04-13T02:13:32.106Z,945.4
2019-04-13T02:16:38.071Z,945.4
2019-04-13T02:19:44.032Z,945.4
2019-04-13T02:22:49.990Z,945.4
2019-04-13T02:25:55.938Z,945.4
2019-04-13T02:29:01.867Z,945.4
2019-04-13T02:32:07.744Z,945.4
2019-04-13T02:35:13.769Z,945.4
2019-04-13T02:38:38.778Z,945.4
2019-04-13T02:41:45.004Z,945.5
2019-04-13T02:44:51.156Z,945.4
2019-04-13T02:47:57.119Z,945.5
2019-04-13T02:51:03.226Z,945.5
2019-04-13T02:54:09.190Z,945.5
2019-04-13T02:57:15.409Z,945.5
2019-04-13T03:00:21.359Z,945.5
2019-04-13T03:03:27.339Z,945.5
2019-04-13T03:06:33.220Z,945.4
2019-04-13T03:09:39.244Z,945.5
2019-04-13T03:12:45.205Z,945.4
2019-04-13T03:15:51.073Z,945.5
2019-04-13T03:18:57.129Z,945.6
2019-04-13T03:22:03.089Z,945.6
2019-04-13T03:25:08.953Z,945.5
2019-04-13T03:28:15.027Z,945.5
2019-04-13T03:31:21.016Z,945.4
2019-04-13T03:34:27.175Z,945.4
2019-04-13T03:37:33.219Z,945.5
2019-04-13T03:40:39.074Z,945.4
2019-04-13T03:43:45.012Z,945.5
2019-04-13T03:46:50.998Z,945.4
2019-04-13T03:49:56.932Z,945.5
2019-04-13T03:53:03.006Z,945.4
2019-04-13T03:56:08.951Z,945.4
2019-04-13T03:59:14.837Z,945.4
2019-04-13T04:02:20.718Z,945.4
2019-04-13T04:05:26.626Z,945.4
2019-04-13T04:08:32.700Z,945.4
2019-04-13T04:11:38.577Z,945.4
2019-04-13T04:14:44.611Z,945.4
2019-04-13T04:17:50.583Z,945.5
2019-04-13T04:20:56.542Z,945.4
2019-04-13T04:24:02.695Z,945.4
2019-04-13T04:27:08.654Z,945.4
2019-04-13T04:30:14.561Z,945.4
2019-04-13T04:33:20.480Z,945.3
2019-04-13T04:36:26.548Z,945.4
2019-04-13T04:39:32.419Z,945.3
2019-04-13T04:42:38.349Z,945.4
2019-04-13T04:45:44.242Z,945.4
2019-04-13T04:48:50.272Z,945.5
2019-04-13T04:51:56.197Z,945.4
2019-04-13T04:55:02.206Z,945.5
2019-04-13T04:58:08.253Z,945.5
2019-04-13T05:01:14.217Z,945.4
2019-04-13T05:04:20.119Z,945.4
2019-04-13T05:07:26.036Z,945.5
2019-04-13T05:10:31.995Z,945.6
2019-04-13T05:13:37.943Z,945.6
2019-04-13T05:16:43.806Z,945.6
2019-04-13T05:19:49.764Z,945.6
2019-04-13T05:22:55.725Z,945.6
2019-04-13T05:26:01.688Z,945.6
2019-04-13T05:29:07.705Z,945.7
2019-04-13T05:32:13.567Z,945.6
2019-04-13T05:35:19.567Z,945.7
2019-04-13T05:38:25.523Z,945.7
2019-04-13T05:41:31.484Z,945.7
2019-04-13T05:44:37.491Z,945.7
2019-04-13T05:47:43.403Z,945.7
2019-04-13T05:50:49.364Z,945.7
2019-04-13T05:53:55.280Z,945.7
2019-04-13T05:57:04.253Z,945.7
2019-04-13T06:00:10.215Z,945.6
2019-04-13T06:03:16.174Z,945.6
2019-04-13T06:06:22.061Z,945.7
2019-04-13T06:09:28.297Z,945.7
2019-04-13T06:12:34.325Z,945.7
2019-04-13T06:15:40.440Z,945.6
2019-04-13T06:18:46.400Z,945.6
2019-04-13T06:21:56.541Z,945.7
2019-04-13T06:25:02.509Z,945.7
2019-04-13T06:28:15.837Z,945.7
2019-04-13T06:31:21.715Z,945.7
2019-04-13T06:34:27.657Z,945.7
2019-04-13T06:37:33.717Z,945.8
2019-04-13T06:40:42.236Z,945.8
2019-04-13T06:43:48.364Z,945.9
2019-04-13T06:46:54.271Z,945.9
2019-04-13T06:50:00.151Z,945.9
2019-04-13T06:53:08.991Z,946
2019-04-13T06:56:15.004Z,945.9
2019-04-13T06:59:21.069Z,946
2019-04-13T07:02:27.036Z,946
2019-04-13T07:05:33.408Z,946.1
2019-04-13T07:08:40.091Z,946
2019-04-13T07:11:46.238Z,946
2019-04-13T07:14:54.664Z,946.1
2019-04-13T07:18:00.684Z,946.2
2019-04-13T07:21:06.589Z,946.2
2019-04-13T07:24:12.705Z,946.2
2019-04-13T07:27:21.718Z,946.2
2019-04-13T07:30:27.738Z,946.2
2019-04-13T07:33:33.699Z,946.3
2019-04-13T07:36:42.997Z,946.2
2019-04-13T07:39:50.025Z,946.2
2019-04-13T07:42:58.799Z,946.2
2019-04-13T07:46:04.811Z,946.3
2019-04-13T07:49:15.176Z,946.3
2019-04-13T07:52:21.145Z,946.3
2019-04-13T07:55:32.117Z,946.2
2019-04-13T07:58:41.150Z,946.2
2019-04-13T08:01:58.040Z,946.1
2019-04-13T08:05:04.064Z,946.2
2019-04-13T08:08:10.014Z,946.1
2019-04-13T08:11:16.044Z,946.2
2019-04-13T08:14:22.247Z,946.1
2019-04-13T08:17:28.171Z,946.2
2019-04-13T08:20:35.675Z,946.2
2019-04-13T08:23:41.574Z,946.2
2019-04-13T08:26:50.143Z,946.1
2019-04-13T08:29:56.108Z,946.1
2019-04-13T08:33:02.372Z,946.1
2019-04-13T08:36:08.328Z,946.1
2019-04-13T08:39:15.729Z,946.1
2019-04-13T08:42:28.031Z,946.1
2019-04-13T08:45:34.100Z,946.2
2019-04-13T08:48:39.990Z,946.1
2019-04-13T08:51:45.916Z,946.1
2019-04-13T08:54:51.871Z,946.2
2019-04-13T08:57:57.932Z,946.2
2019-04-13T09:01:03.849Z,946.1
2019-04-13T09:04:09.848Z,946.2
2019-04-13T09:07:16.428Z,946.2
2019-04-13T09:10:33.237Z,946.2
2019-04-13T09:13:44.789Z,946.1
2019-04-13T09:16:55.797Z,946.1
2019-04-13T09:20:08.499Z,946.2
2019-04-13T09:23:18.562Z,946.2
2019-04-13T09:26:25.574Z,946.2
2019-04-13T09:29:39.111Z,946.3
2019-04-13T09:32:50.415Z,946.2
2019-04-13T09:35:58.189Z,946.3
2019-04-13T09:39:04.205Z,946.2
2019-04-13T09:42:12.399Z,946.2
2019-04-13T09:45:18.244Z,946.3
2019-04-13T09:48:24.182Z,946.2
2019-04-13T09:51:30.143Z,946.2
2019-04-13T09:54:36.017Z,946.2
2019-04-13T09:57:46.576Z,946.2
2019-04-13T10:00:53.764Z,946.2
2019-04-13T10:04:04.046Z,946.1
2019-04-13T10:07:12.166Z,946.1
2019-04-13T10:10:18.221Z,946.1
2019-04-13T10:13:24.163Z,946.1
2019-04-13T10:16:30.214Z,946.1
2019-04-13T10:19:36.176Z,946.1
2019-04-13T10:22:45.265Z,946.1
2019-04-13T10:25:51.370Z,946.1
2019-04-13T10:28:57.256Z,946.2
2019-04-13T10:32:03.318Z,946.2
2019-04-13T10:35:09.235Z,946.2
2019-04-13T10:38:15.214Z,946.2
2019-04-13T10:41:21.276Z,946.2
2019-04-13T10:44:27.244Z,946.2
2019-04-13T10:47:33.199Z,946.2
2019-04-13T10:50:39.158Z,946.3
2019-04-13T10:53:45.151Z,946.2
2019-04-13T10:56:51.177Z,946.2
2019-04-13T10:59:59.601Z,946.2
2019-04-13T11:03:05.658Z,946.2
2019-04-13T11:06:11.613Z,946.3
2019-04-13T11:09:28.222Z,946.3
2019-04-13T11:12:35.030Z,946.3
2019-04-13T11:15:45.291Z,946.3
2019-04-13T11:18:51.767Z,946.2
2019-04-13T11:21:57.831Z,946.3
2019-04-13T11:25:03.762Z,946.3
2019-04-13T11:28:09.734Z,946.4
2019-04-13T11:31:15.684Z,946.3
2019-04-13T11:34:30.808Z,946.3
2019-04-13T11:37:36.814Z,946.3
2019-04-13T11:40:42.883Z,946.3
2019-04-13T11:43:48.903Z,946.2
2019-04-13T11:46:54.914Z,946.2
2019-04-13T11:50:00.916Z,946.1
2019-04-13T11:53:06.924Z,946.2
2019-04-13T11:56:12.884Z,946.1
2019-04-13T11:59:18.754Z,946.1
2019-04-13T12:02:27.337Z,946.1
2019-04-13T12:05:33.965Z,946.1
2019-04-13T12:08:39.897Z,946.1
2019-04-13T12:11:45.855Z,946
2019-04-13T12:14:53.094Z,946
2019-04-13T12:17:59.157Z,945.9
2019-04-13T12:21:05.117Z,945.9
2019-04-13T12:24:11.025Z,945.9
2019-04-13T12:27:16.985Z,945.9
2019-04-13T12:30:22.977Z,945.9
2019-04-13T12:33:28.911Z,945.9
2019-04-13T12:36:34.974Z,945.8
2019-04-13T12:39:41.751Z,945.8
2019-04-13T12:42:47.722Z,945.7
2019-04-13T12:45:53.676Z,945.7
2019-04-13T12:48:59.631Z,945.6
2019-04-13T12:52:05.511Z,945.6
2019-04-13T12:55:15.544Z,945.6
2019-04-13T12:58:24.892Z,945.6
2019-04-13T13:01:33.632Z,945.5
2019-04-13T13:04:39.569Z,945.6
2019-04-13T13:07:45.447Z,945.6
2019-04-13T13:10:51.382Z,945.5
2019-04-13T13:13:57.287Z,945.5
2019-04-13T13:17:03.280Z,945.5
2019-04-13T13:20:09.291Z,945.5
2019-04-13T13:23:20.188Z,945.5
2019-04-13T13:26:26.063Z,945.5
2019-04-13T13:29:32.061Z,945.5
2019-04-13T13:32:38.021Z,945.5
2019-04-13T13:35:43.979Z,945.5
2019-04-13T13:38:49.955Z,945.6
2019-04-13T13:41:55.808Z,945.6
2019-04-13T13:45:01.753Z,945.5
2019-04-13T13:48:07.714Z,945.6
2019-04-13T13:51:13.675Z,945.6
2019-04-13T13:54:19.685Z,945.6
2019-04-13T13:57:25.594Z,945.7
2019-04-13T14:00:31.551Z,945.7
2019-04-13T14:03:37.511Z,945.7
2019-04-13T14:06:43.475Z,945.7
2019-04-13T14:09:49.345Z,945.7
2019-04-13T14:12:55.398Z,945.7
2019-04-13T14:16:01.455Z,945.7
2019-04-13T14:19:07.618Z,945.7
2019-04-13T14:22:13.499Z,945.8
2019-04-13T14:25:19.435Z,945.8
2019-04-13T14:28:25.396Z,945.9
2019-04-13T14:31:31.405Z,945.8
2019-04-13T14:34:37.521Z,945.9
2019-04-13T14:37:44.203Z,945.9
2019-04-13T14:40:57.440Z,945.8
2019-04-13T14:44:03.345Z,945.8
2019-04-13T14:47:09.557Z,945.8
2019-04-13T14:50:15.626Z,945.8
2019-04-13T14:53:21.601Z,945.8
2019-04-13T14:56:27.557Z,945.8
2019-04-13T14:59:38.033Z,945.9
2019-04-13T15:02:44.092Z,945.9
2019-04-13T15:05:50.029Z,945.9
2019-04-13T15:08:55.906Z,945.9
2019-04-13T15:12:01.777Z,945.9
2019-04-13T15:15:09.277Z,945.9
2019-04-13T15:18:22.415Z,945.9
2019-04-13T15:21:38.942Z,945.9
2019-04-13T15:25:00.987Z,945.8
2019-04-13T15:28:17.570Z,945.9
2019-04-13T15:31:43.011Z,945.9
2019-04-13T15:34:53.762Z,945.8
2019-04-13T15:38:26.709Z,945.9
2019-04-13T15:42:13.877Z,945.9
2019-04-13T15:46:33.258Z,946
2019-04-13T15:49:44.531Z,946
2019-04-13T15:52:53.776Z,946
2019-04-13T15:56:04.644Z,946
2019-04-13T15:59:21.585Z,946
2019-04-13T16:02:31.338Z,946.1
2019-04-13T16:05:47.412Z,946.1
2019-04-13T16:08:57.642Z,946.1
2019-04-13T16:12:13.121Z,946.1
2019-04-13T16:15:25.046Z,946.2
2019-04-13T16:18:34.730Z,946.2
2019-04-13T16:21:46.090Z,946.2
2019-04-13T16:24:56.729Z,946.2
2019-04-13T16:28:09.218Z,946.3
2019-04-13T16:31:23.121Z,946.3
2019-04-13T16:34:34.394Z,946.3
2019-04-13T16:37:44.161Z,946.3
2019-04-13T16:40:54.274Z,946.4
2019-04-13T16:44:04.392Z,946.5
2019-04-13T16:47:14.933Z,946.5
2019-04-13T16:50:25.995Z,946.5
2019-04-13T16:53:35.865Z,946.6
2019-04-13T16:56:45.838Z,946.5
2019-04-13T16:59:54.908Z,946.6
2019-04-13T17:03:05.410Z,946.6
2019-04-13T17:06:16.878Z,946.6
2019-04-13T17:09:34.892Z,946.7
2019-04-13T17:12:49.361Z,946.8
2019-04-13T17:16:00.571Z,946.8
2019-04-13T17:19:10.342Z,946.7
2019-04-13T17:22:20.294Z,946.7
2019-04-13T17:25:31.273Z,946.7
2019-04-13T17:28:42.046Z,946.7
2019-04-13T17:31:51.919Z,946.7
2019-04-13T17:35:03.565Z,946.6
2019-04-13T17:38:13.477Z,946.8
2019-04-13T17:41:25.245Z,946.8
2019-04-13T17:44:35.353Z,946.8
2019-04-13T17:47:47.287Z,946.8
2019-04-13T17:50:58.787Z,946.9
2019-04-13T17:54:08.860Z,946.9
2019-04-13T17:57:19.903Z,947
2019-04-13T18:00:30.922Z,947
2019-04-13T18:03:40.729Z,947
2019-04-13T18:06:50.997Z,947
2019-04-13T18:10:00.048Z,947
2019-04-13T18:13:10.510Z,947.2
2019-04-13T18:16:21.503Z,947.2
2019-04-13T18:19:31.805Z,947.2
2019-04-13T18:22:47.457Z,947.2
2019-04-13T18:26:02.632Z,947.2
2019-04-13T18:29:17.396Z,947.2
2019-04-13T18:32:30.103Z,947.3
2019-04-13T18:35:41.584Z,947.3
2019-04-13T18:38:58.820Z,947.3
2019-04-13T18:42:10.417Z,947.4
2019-04-13T18:45:20.679Z,947.4
2019-04-13T18:48:34.523Z,947.4
2019-04-13T18:51:48.480Z,947.3
2019-04-13T18:54:57.904Z,947.3
2019-04-13T18:58:14.297Z,947.3
2019-04-13T19:01:27.232Z,947.3
2019-04-13T19:04:36.105Z,947.2
2019-04-13T19:07:42.068Z,947.1
2019-04-13T19:10:48.130Z,947.2
2019-04-13T19:13:54.193Z,947.2
2019-04-13T19:17:00.153Z,947.2
2019-04-13T19:20:06.113Z,947.1
2019-04-13T19:23:12.076Z,947.2
2019-04-13T19:26:18.030Z,947.1
2019-04-13T19:29:23.989Z,947.1
2019-04-13T19:32:29.948Z,947
2019-04-13T19:35:36.011Z,947
2019-04-13T19:38:41.974Z,947
2019-04-13T19:41:47.939Z,946.9
2019-04-13T19:44:53.891Z,947
2019-04-13T19:47:59.954Z,946.9
2019-04-13T19:51:05.921Z,947
2019-04-13T19:54:11.882Z,947
2019-04-13T19:57:17.760Z,947
2019-04-13T20:00:23.795Z,946.8
2019-04-13T20:03:29.957Z,946.8
2019-04-13T20:06:35.920Z,946.8
2019-04-13T20:09:41.844Z,946.8
2019-04-13T20:12:48.991Z,946.8
2019-04-13T20:16:01.605Z,946.7
2019-04-13T20:19:12.820Z,946.7
2019-04-13T20:22:18.830Z,946.7
2019-04-13T20:25:28.405Z,946.7
2019-04-13T20:28:43.962Z,946.7
2019-04-13T20:31:54.865Z,946.7
2019-04-13T20:35:06.311Z,946.8
2019-04-13T20:38:17.758Z,946.7
2019-04-13T20:41:59.140Z,946.7
2019-04-13T20:45:34.763Z,946.7
2019-04-13T20:48:42.354Z,946.7
2019-04-13T20:51:52.362Z,946.7
2019-04-13T20:55:00.195Z,946.6
2019-04-13T20:58:18.261Z,946.6
2019-04-13T21:01:28.582Z,946.6
2019-04-13T21:04:39.173Z,946.6
2019-04-13T21:07:49.507Z,946.7
2019-04-13T21:10:59.297Z,946.6
2019-04-13T21:14:34.223Z,946.7
2019-04-13T21:17:59.909Z,946.8
2019-04-13T21:21:10.615Z,946.7
2019-04-13T21:24:20.435Z,946.7
2019-04-13T21:27:31.304Z,946.8
2019-04-13T21:30:42.428Z,946.8
2019-04-13T21:33:54.700Z,946.8
2019-04-13T21:37:07.321Z,946.8
2019-04-13T21:40:17.171Z,946.9
2019-04-13T21:43:27.999Z,946.8
2019-04-13T21:46:45.750Z,946.9
2019-04-13T21:49:56.144Z,946.8
2019-04-13T21:53:07.846Z,946.9
2019-04-13T21:56:18.714Z,947
2019-04-13T21:59:35.419Z,946.9
2019-04-13T22:02:46.385Z,946.9
2019-04-13T22:05:57.409Z,946.9
2019-04-13T22:09:08.760Z,946.9
2019-04-13T22:12:19.954Z,946.9
2019-04-13T22:15:31.025Z,947
2019-04-13T22:18:40.973Z,947
2019-04-13T22:21:52.441Z,947
2019-04-13T22:25:03.696Z,947
2019-04-13T22:28:19.435Z,947
2019-04-13T22:31:30.964Z,947
2019-04-13T22:34:40.998Z,947
2019-04-13T22:37:51.613Z,946.9
2019-04-13T22:41:03.251Z,946.9
2019-04-13T22:44:13.906Z,947
2019-04-13T22:47:23.475Z,947
2019-04-13T22:50:33.310Z,946.9
2019-04-13T22:53:44.497Z,946.9
2019-04-13T22:56:55.778Z,946.9
2019-04-13T23:00:06.871Z,946.8
2019-04-13T23:03:18.458Z,946.9
2019-04-13T23:06:29.203Z,946.8
2019-04-13T23:09:39.487Z,946.8
2019-04-13T23:12:50.743Z,946.8
2019-04-13T23:16:02.006Z,946.8
2019-04-13T23:19:11.806Z,946.7
2019-04-13T23:22:23.415Z,946.7
2019-04-13T23:25:33.255Z,946.6
2019-04-13T23:28:43.094Z,946.6
2019-04-13T23:31:54.994Z,946.6
2019-04-13T23:35:08.251Z,946.6
2019-04-13T23:38:18.072Z,946.5
2019-04-13T23:41:27.828Z,946.5
2019-04-13T23:44:42.046Z,946.5
2019-04-13T23:47:52.137Z,946.4
2019-04-13T23:51:03.379Z,946.4
2019-04-13T23:54:13.448Z,946.4
2019-04-13T23:57:24.647Z,946.4
